Bojnord Airport


Codes: OIMN/BJB
Name: Bojnord Airport
City: Bojnord
Country: Iran
Elevation: 3499 ft.
Wikipedia:

Photos at Bojnord Airport


   Photos courtesy of SpottingLog. You can add your own sightings and photos by signing up for a free trial today.



No photos found.

Weather at Bojnord Airport


Time (UTC)DescriptionTempratureWindCloud coverageVisibilityPressureHumidity
19-Apr-2024 06:00Few Clouds13°C7 mph, E23%10000m1012hPa49%
19-Apr-2024 09:00Broken Clouds18°C4 mph, NE61%10000m1010hPa32%
19-Apr-2024 12:00Overcast Clouds22°C7 mph, N92%10000m1008hPa18%
19-Apr-2024 15:00Scattered Clouds19°C7 mph, W43%10000m1009hPa25%
19-Apr-2024 18:00Few Clouds17°C2 mph, NW21%10000m1010hPa34%
19-Apr-2024 21:00Clear Sky15°C2 mph, W0%10000m1010hPa41%
20-Apr-2024 00:00Clear Sky14°C4 mph, W0%10000m1011hPa41%
20-Apr-2024 03:00Clear Sky16°C2 mph, W0%10000m1012hPa38%
20-Apr-2024 06:00Clear Sky20°C4 mph, NW0%10000m1012hPa24%
20-Apr-2024 09:00Clear Sky22°C9 mph, NW2%10000m1011hPa20%
20-Apr-2024 12:00Few Clouds22°C13 mph, NW16%10000m1011hPa18%
20-Apr-2024 15:00Broken Clouds18°C9 mph, NW54%10000m1012hPa28%
20-Apr-2024 18:00Scattered Clouds16°C4 mph, W40%10000m1013hPa32%
20-Apr-2024 21:00Clear Sky14°C2 mph, SW2%10000m1012hPa36%
21-Apr-2024 00:00Clear Sky13°C2 mph, SE3%10000m1012hPa36%
21-Apr-2024 03:00Few Clouds15°C4 mph, SE19%10000m1012hPa32%
21-Apr-2024 06:00Scattered Clouds20°C2 mph, E48%10000m1011hPa23%
21-Apr-2024 09:00Clear Sky23°C4 mph, NW8%10000m1009hPa20%
21-Apr-2024 12:00Clear Sky24°C9 mph, NW5%10000m1009hPa19%
21-Apr-2024 15:00Scattered Clouds20°C4 mph, NW48%10000m1011hPa30%
21-Apr-2024 18:00Scattered Clouds18°C2 mph, W26%10000m1011hPa38%
21-Apr-2024 21:00Clear Sky17°C4 mph, W0%10000m1011hPa37%
22-Apr-2024 00:00Clear Sky15°C2 mph, W0%10000m1012hPa41%
22-Apr-2024 03:00Clear Sky18°C2 mph, S0%10000m1013hPa33%
22-Apr-2024 06:00Few Clouds22°C2 mph, N16%10000m1012hPa24%
22-Apr-2024 09:00Scattered Clouds24°C9 mph, NW29%10000m1011hPa21%
22-Apr-2024 12:00Broken Clouds24°C13 mph, NW65%10000m1011hPa21%
22-Apr-2024 15:00Overcast Clouds21°C11 mph, W91%10000m1013hPa31%
22-Apr-2024 18:00Overcast Clouds18°C7 mph, W88%10000m1015hPa36%
22-Apr-2024 21:00Overcast Clouds17°C7 mph, W100%10000m1014hPa37%
23-Apr-2024 00:00Overcast Clouds15°C4 mph, NW99%10000m1015hPa47%
23-Apr-2024 03:00Overcast Clouds16°C7 mph, NW96%10000m1016hPa47%
23-Apr-2024 06:00Overcast Clouds18°C9 mph, NW98%10000m1017hPa41%
23-Apr-2024 09:00Light Rain17°C13 mph, NW100%10000m1017hPa51%
23-Apr-2024 12:00Light Rain15°C11 mph, NW100%10000m1017hPa61%
23-Apr-2024 15:00Overcast Clouds12°C9 mph, NW100%10000m1019hPa78%
23-Apr-2024 18:00Overcast Clouds11°C9 mph, NW100%10000m1021hPa87%
23-Apr-2024 21:00Overcast Clouds10°C7 mph, NW100%10000m1021hPa89%
24-Apr-2024 00:00Light Rain10°C4 mph, NW100%10000m1020hPa91%
24-Apr-2024 03:00Light Rain10°C4 mph, NW100%8807m1021hPa93%